首页
METAR-TAF:

METAR-TAF

机场 :

根西岛,

纬度: 49-26N, 经度: 002-36W, 海拔: 102米

当前天气观测

该预报发布于27分钟前的09:50 UTC
风速8节,风向东转东北,在北转东北之间变化
温度 5°C
湿度 65%
气压 1029 hPa
能见度10公里或以上
少量云层高于2600英尺
多云层高于3100英尺

METAR: EGJB 050950Z 06008KT 020V080 9999 FEW026 BKN031 05/M01 Q1029

时间: 10:17 (10:17 UTC)

预报

该预报发布于2小时和12分钟前的08:05 UTC
预报有效从05日的 09点(UTC)到 05日的 18点(UTC)
风速14节,风向东北
能见度10公里或以上
少量云层高于2200英尺
散云层高于3500英尺
短暂存在
从 05日的 09点(UTC)到 05日的 18点(UTC)
风速18节,风向东转东北,有时为28节阵风

TAF: EGJB 050805Z 0509/0518 05014KT 9999 FEW022 SCT035 TEMPO 0509/0518 06018G28KT

超过4000个机场的气象观测和天气预报(METAR&TAF报告)。

可查询的气象台以黄色和红色小点在地图上表示。

将鼠标移到小点上方,可查看气象台名称。

然后点击查看天气观测和预报。

如需切换地图:点击带黑十字的绿色按钮放大地图;点击带横线的绿色按钮缩小地图;或者点击绿色箭头查看邻近地区的地图。


METAR-TAF: